sensor_id;sensor_type;location;lat;lon;timestamp;temperature;humidity
19248;DHT22;9758;48.640;8.148;2022-11-02T00:00:19;14.70;57.50
19248;DHT22;9758;48.640;8.148;2022-11-02T00:02:46;14.70;57.50
19248;DHT22;9758;48.640;8.148;2022-11-02T00:05:15;14.70;57.40
19248;DHT22;9758;48.640;8.148;2022-11-02T00:07:48;14.70;57.40
19248;DHT22;9758;48.640;8.148;2022-11-02T00:10:15;14.80;57.40
19248;DHT22;9758;48.640;8.148;2022-11-02T00:12:41;14.70;57.30
19248;DHT22;9758;48.640;8.148;2022-11-02T00:15:09;14.70;57.30
19248;DHT22;9758;48.640;8.148;2022-11-02T00:17:37;14.70;57.30
19248;DHT22;9758;48.640;8.148;2022-11-02T00:20:05;14.70;57.30
19248;DHT22;9758;48.640;8.148;2022-11-02T00:22:33;14.70;57.30
19248;DHT22;9758;48.640;8.148;2022-11-02T00:25:01;14.70;57.40
19248;DHT22;9758;48.640;8.148;2022-11-02T00:27:29;14.70;57.30
19248;DHT22;9758;48.640;8.148;2022-11-02T00:29:56;14.70;57.30
19248;DHT22;9758;48.640;8.148;2022-11-02T00:32:24;14.70;57.30
19248;DHT22;9758;48.640;8.148;2022-11-02T00:34:51;14.70;57.40
19248;DHT22;9758;48.640;8.148;2022-11-02T00:37:17;14.70;57.30
19248;DHT22;9758;48.640;8.148;2022-11-02T00:39:46;14.70;57.30
19248;DHT22;9758;48.640;8.148;2022-11-02T00:42:12;14.70;57.40
19248;DHT22;9758;48.640;8.148;2022-11-02T00:44:40;14.70;57.40
19248;DHT22;9758;48.640;8.148;2022-11-02T00:47:07;14.70;57.40
19248;DHT22;9758;48.640;8.148;2022-11-02T00:49:36;14.70;57.30
19248;DHT22;9758;48.640;8.148;2022-11-02T00:52:03;14.70;57.30
19248;DHT22;9758;48.640;8.148;2022-11-02T00:54:30;14.70;57.30
19248;DHT22;9758;48.640;8.148;2022-11-02T00:56:58;14.70;57.20
19248;DHT22;9758;48.640;8.148;2022-11-02T00:59:25;14.80;57.30
19248;DHT22;9758;48.640;8.148;2022-11-02T01:01:51;14.80;57.20
19248;DHT22;9758;48.640;8.148;2022-11-02T01:04:18;14.80;57.20
19248;DHT22;9758;48.640;8.148;2022-11-02T01:06:45;14.80;57.20
19248;DHT22;9758;48.640;8.148;2022-11-02T01:09:13;14.80;57.10
19248;DHT22;9758;48.640;8.148;2022-11-02T01:11:40;14.80;57.20
19248;DHT22;9758;48.640;8.148;2022-11-02T01:14:09;14.80;57.10
19248;DHT22;9758;48.640;8.148;2022-11-02T01:16:37;14.80;57.20
19248;DHT22;9758;48.640;8.148;2022-11-02T01:19:05;14.90;57.20
19248;DHT22;9758;48.640;8.148;2022-11-02T01:21:32;14.90;57.20
19248;DHT22;9758;48.640;8.148;2022-11-02T01:23:59;14.90;57.20
19248;DHT22;9758;48.640;8.148;2022-11-02T01:26:26;14.90;57.10
19248;DHT22;9758;48.640;8.148;2022-11-02T01:28:53;15.00;57.10
19248;DHT22;9758;48.640;8.148;2022-11-02T01:31:21;14.90;57.00
19248;DHT22;9758;48.640;8.148;2022-11-02T01:33:48;14.90;57.00
19248;DHT22;9758;48.640;8.148;2022-11-02T01:36:17;15.00;57.00
19248;DHT22;9758;48.640;8.148;2022-11-02T01:38:50;15.00;57.00
19248;DHT22;9758;48.640;8.148;2022-11-02T01:41:19;15.00;56.90
19248;DHT22;9758;48.640;8.148;2022-11-02T01:43:48;15.00;56.90
19248;DHT22;9758;48.640;8.148;2022-11-02T01:46:19;15.00;56.90
19248;DHT22;9758;48.640;8.148;2022-11-02T01:48:49;15.00;56.90
19248;DHT22;9758;48.640;8.148;2022-11-02T01:51:23;15.00;56.90
19248;DHT22;9758;48.640;8.148;2022-11-02T01:53:52;15.00;56.90
19248;DHT22;9758;48.640;8.148;2022-11-02T01:56:21;15.10;56.90
19248;DHT22;9758;48.640;8.148;2022-11-02T01:58:53;15.10;56.60
19248;DHT22;9758;48.640;8.148;2022-11-02T02:01:22;15.10;56.90
19248;DHT22;9758;48.640;8.148;2022-11-02T02:03:51;15.10;56.80
19248;DHT22;9758;48.640;8.148;2022-11-02T02:06:19;15.10;56.80
19248;DHT22;9758;48.640;8.148;2022-11-02T02:08:48;15.10;57.40
19248;DHT22;9758;48.640;8.148;2022-11-02T02:11:26;15.10;56.80
19248;DHT22;9758;48.640;8.148;2022-11-02T02:13:55;15.10;56.70
19248;DHT22;9758;48.640;8.148;2022-11-02T02:16:38;15.10;56.70
19248;DHT22;9758;48.640;8.148;2022-11-02T02:19:26;15.10;56.70
19248;DHT22;9758;48.640;8.148;2022-11-02T02:24:56;15.00;56.70
19248;DHT22;9758;48.640;8.148;2022-11-02T02:27:30;15.10;56.80
19248;DHT22;9758;48.640;8.148;2022-11-02T02:30:04;15.10;56.80
19248;DHT22;9758;48.640;8.148;2022-11-02T02:32:40;15.10;56.80
19248;DHT22;9758;48.640;8.148;2022-11-02T02:35:17;15.10;56.90
19248;DHT22;9758;48.640;8.148;2022-11-02T02:37:50;15.00;56.70
19248;DHT22;9758;48.640;8.148;2022-11-02T02:40:21;15.10;56.80
19248;DHT22;9758;48.640;8.148;2022-11-02T02:42:52;15.10;56.80
19248;DHT22;9758;48.640;8.148;2022-11-02T02:45:23;15.10;56.80
19248;DHT22;9758;48.640;8.148;2022-11-02T02:47:56;15.10;56.70
19248;DHT22;9758;48.640;8.148;2022-11-02T02:50:26;15.10;56.60
19248;DHT22;9758;48.640;8.148;2022-11-02T02:52:55;15.20;56.70
19248;DHT22;9758;48.640;8.148;2022-11-02T02:55:28;15.10;56.60
19248;DHT22;9758;48.640;8.148;2022-11-02T02:57:57;15.20;56.70
19248;DHT22;9758;48.640;8.148;2022-11-02T03:00:27;15.20;56.60
19248;DHT22;9758;48.640;8.148;2022-11-02T03:02:57;15.20;56.60
19248;DHT22;9758;48.640;8.148;2022-11-02T03:05:29;15.20;56.60
19248;DHT22;9758;48.640;8.148;2022-11-02T03:08:00;15.20;56.60
19248;DHT22;9758;48.640;8.148;2022-11-02T03:10:35;15.30;56.60
19248;DHT22;9758;48.640;8.148;2022-11-02T03:13:19;15.20;56.50
19248;DHT22;9758;48.640;8.148;2022-11-02T03:15:52;15.20;56.50
19248;DHT22;9758;48.640;8.148;2022-11-02T03:18:29;15.20;56.50
19248;DHT22;9758;48.640;8.148;2022-11-02T03:21:05;15.20;56.60
19248;DHT22;9758;48.640;8.148;2022-11-02T03:23:37;15.10;56.50
19248;DHT22;9758;48.640;8.148;2022-11-02T03:26:08;15.10;56.60
19248;DHT22;9758;48.640;8.148;2022-11-02T03:28:46;15.10;56.60
19248;DHT22;9758;48.640;8.148;2022-11-02T03:31:26;15.10;56.60
19248;DHT22;9758;48.640;8.148;2022-11-02T03:34:01;15.10;56.60
19248;DHT22;9758;48.640;8.148;2022-11-02T03:36:32;15.10;56.60
19248;DHT22;9758;48.640;8.148;2022-11-02T03:39:05;15.10;56.60
19248;DHT22;9758;48.640;8.148;2022-11-02T03:41:34;15.10;56.70
19248;DHT22;9758;48.640;8.148;2022-11-02T03:44:06;15.10;56.60
19248;DHT22;9758;48.640;8.148;2022-11-02T03:46:37;15.10;56.70
19248;DHT22;9758;48.640;8.148;2022-11-02T03:49:07;15.10;56.60
19248;DHT22;9758;48.640;8.148;2022-11-02T03:51:38;15.10;56.70
19248;DHT22;9758;48.640;8.148;2022-11-02T03:54:11;15.10;56.70
19248;DHT22;9758;48.640;8.148;2022-11-02T03:56:42;15.10;56.70
19248;DHT22;9758;48.640;8.148;2022-11-02T03:59:10;15.10;56.70
19248;DHT22;9758;48.640;8.148;2022-11-02T04:01:41;15.10;56.60
19248;DHT22;9758;48.640;8.148;2022-11-02T04:04:09;15.10;56.60
19248;DHT22;9758;48.640;8.148;2022-11-02T04:06:37;15.20;56.70
19248;DHT22;9758;48.640;8.148;2022-11-02T04:09:05;15.20;56.70
19248;DHT22;9758;48.640;8.148;2022-11-02T04:11:32;15.20;56.60
19248;DHT22;9758;48.640;8.148;2022-11-02T04:14:16;15.20;56.60
19248;DHT22;9758;48.640;8.148;2022-11-02T04:17:02;15.30;56.60
19248;DHT22;9758;48.640;8.148;2022-11-02T04:19:46;15.30;56.60
19248;DHT22;9758;48.640;8.148;2022-11-02T04:22:14;15.30;57.10
19248;DHT22;9758;48.640;8.148;2022-11-02T04:24:59;15.40;56.70
19248;DHT22;9758;48.640;8.148;2022-11-02T04:27:44;15.40;56.60
19248;DHT22;9758;48.640;8.148;2022-11-02T04:30:12;15.40;56.50
19248;DHT22;9758;48.640;8.148;2022-11-02T04:32:41;15.40;56.50
19248;DHT22;9758;48.640;8.148;2022-11-02T04:35:26;15.50;56.60
19248;DHT22;9758;48.640;8.148;2022-11-02T04:37:52;15.50;56.50
19248;DHT22;9758;48.640;8.148;2022-11-02T04:40:37;15.50;56.50
19248;DHT22;9758;48.640;8.148;2022-11-02T04:43:03;15.50;56.40
19248;DHT22;9758;48.640;8.148;2022-11-02T04:45:30;15.60;56.50
19248;DHT22;9758;48.640;8.148;2022-11-02T04:48:03;15.60;56.50
19248;DHT22;9758;48.640;8.148;2022-11-02T04:50:30;15.70;56.50
19248;DHT22;9758;48.640;8.148;2022-11-02T04:52:58;15.70;56.40
19248;DHT22;9758;48.640;8.148;2022-11-02T04:55:25;15.70;56.40
19248;DHT22;9758;48.640;8.148;2022-11-02T04:57:53;15.70;56.40
19248;DHT22;9758;48.640;8.148;2022-11-02T05:00:20;15.80;56.30
19248;DHT22;9758;48.640;8.148;2022-11-02T05:02:47;15.80;56.10
19248;DHT22;9758;48.640;8.148;2022-11-02T05:05:16;15.80;56.20
19248;DHT22;9758;48.640;8.148;2022-11-02T05:07:43;15.80;56.30
19248;DHT22;9758;48.640;8.148;2022-11-02T05:10:10;15.80;56.90
19248;DHT22;9758;48.640;8.148;2022-11-02T05:12:37;15.90;56.30
19248;DHT22;9758;48.640;8.148;2022-11-02T05:15:04;15.90;56.20
19248;DHT22;9758;48.640;8.148;2022-11-02T05:17:31;15.90;56.20
19248;DHT22;9758;48.640;8.148;2022-11-02T05:19:58;15.90;56.20
19248;DHT22;9758;48.640;8.148;2022-11-02T05:22:26;15.90;56.20
19248;DHT22;9758;48.640;8.148;2022-11-02T05:24:53;16.00;56.20
19248;DHT22;9758;48.640;8.148;2022-11-02T05:27:19;16.00;56.10
19248;DHT22;9758;48.640;8.148;2022-11-02T05:29:46;16.00;56.10
19248;DHT22;9758;48.640;8.148;2022-11-02T05:32:13;16.00;56.10
19248;DHT22;9758;48.640;8.148;2022-11-02T05:34:40;16.00;56.00
19248;DHT22;9758;48.640;8.148;2022-11-02T05:37:06;16.00;56.10
19248;DHT22;9758;48.640;8.148;2022-11-02T05:39:34;16.00;56.10
19248;DHT22;9758;48.640;8.148;2022-11-02T05:42:01;16.00;56.10
19248;DHT22;9758;48.640;8.148;2022-11-02T05:44:28;16.00;56.10
19248;DHT22;9758;48.640;8.148;2022-11-02T05:46:55;16.00;56.00
19248;DHT22;9758;48.640;8.148;2022-11-02T05:49:22;16.00;56.00
19248;DHT22;9758;48.640;8.148;2022-11-02T05:51:49;16.00;56.10
19248;DHT22;9758;48.640;8.148;2022-11-02T05:54:15;15.90;56.10
19248;DHT22;9758;48.640;8.148;2022-11-02T05:56:44;15.90;56.10
19248;DHT22;9758;48.640;8.148;2022-11-02T05:59:10;15.90;56.20
19248;DHT22;9758;48.640;8.148;2022-11-02T06:01:45;15.90;56.20
19248;DHT22;9758;48.640;8.148;2022-11-02T06:04:12;15.90;56.20
19248;DHT22;9758;48.640;8.148;2022-11-02T06:06:39;15.90;56.20
19248;DHT22;9758;48.640;8.148;2022-11-02T06:09:05;15.90;56.20
19248;DHT22;9758;48.640;8.148;2022-11-02T06:11:32;15.90;56.20
19248;DHT22;9758;48.640;8.148;2022-11-02T06:14:00;15.80;56.20
19248;DHT22;9758;48.640;8.148;2022-11-02T06:16:28;15.80;56.20
19248;DHT22;9758;48.640;8.148;2022-11-02T06:18:56;15.80;56.30
19248;DHT22;9758;48.640;8.148;2022-11-02T06:21:22;15.80;56.30
19248;DHT22;9758;48.640;8.148;2022-11-02T06:23:49;15.80;56.30
19248;DHT22;9758;48.640;8.148;2022-11-02T06:26:16;15.70;56.30
19248;DHT22;9758;48.640;8.148;2022-11-02T06:28:43;15.70;56.40
19248;DHT22;9758;48.640;8.148;2022-11-02T06:31:11;15.70;56.40
19248;DHT22;9758;48.640;8.148;2022-11-02T06:33:38;15.70;56.40
19248;DHT22;9758;48.640;8.148;2022-11-02T06:36:05;15.70;56.50
19248;DHT22;9758;48.640;8.148;2022-11-02T06:38:32;15.70;56.50
19248;DHT22;9758;48.640;8.148;2022-11-02T06:41:01;15.70;56.50
19248;DHT22;9758;48.640;8.148;2022-11-02T06:43:28;15.60;56.50
19248;DHT22;9758;48.640;8.148;2022-11-02T06:45:55;15.60;56.50
19248;DHT22;9758;48.640;8.148;2022-11-02T06:48:25;15.60;56.50
19248;DHT22;9758;48.640;8.148;2022-11-02T06:50:52;15.60;56.60
19248;DHT22;9758;48.640;8.148;2022-11-02T06:53:19;15.60;56.50
19248;DHT22;9758;48.640;8.148;2022-11-02T06:55:50;15.70;56.60
19248;DHT22;9758;48.640;8.148;2022-11-02T06:58:17;15.70;56.60
19248;DHT22;9758;48.640;8.148;2022-11-02T07:00:44;15.70;56.60
19248;DHT22;9758;48.640;8.148;2022-11-02T07:03:11;15.70;56.60
19248;DHT22;9758;48.640;8.148;2022-11-02T07:05:39;15.70;56.60
19248;DHT22;9758;48.640;8.148;2022-11-02T07:08:06;15.70;56.60
19248;DHT22;9758;48.640;8.148;2022-11-02T07:10:33;15.70;56.60
19248;DHT22;9758;48.640;8.148;2022-11-02T07:13:15;15.70;56.50
19248;DHT22;9758;48.640;8.148;2022-11-02T07:15:42;15.70;56.60
19248;DHT22;9758;48.640;8.148;2022-11-02T07:18:11;15.70;56.60
19248;DHT22;9758;48.640;8.148;2022-11-02T07:20:45;15.80;56.70
19248;DHT22;9758;48.640;8.148;2022-11-02T07:23:12;15.80;56.60
19248;DHT22;9758;48.640;8.148;2022-11-02T07:25:39;15.80;56.60
19248;DHT22;9758;48.640;8.148;2022-11-02T07:28:06;15.80;56.70
19248;DHT22;9758;48.640;8.148;2022-11-02T07:30:35;15.80;56.70
19248;DHT22;9758;48.640;8.148;2022-11-02T07:33:01;15.80;56.70
19248;DHT22;9758;48.640;8.148;2022-11-02T07:35:28;15.80;56.70
19248;DHT22;9758;48.640;8.148;2022-11-02T07:37:58;15.80;56.70
19248;DHT22;9758;48.640;8.148;2022-11-02T07:40:26;15.90;56.70
19248;DHT22;9758;48.640;8.148;2022-11-02T07:42:53;15.90;56.60
19248;DHT22;9758;48.640;8.148;2022-11-02T07:45:20;15.90;56.60
19248;DHT22;9758;48.640;8.148;2022-11-02T07:47:47;16.00;56.70
19248;DHT22;9758;48.640;8.148;2022-11-02T07:50:17;16.00;56.60
19248;DHT22;9758;48.640;8.148;2022-11-02T07:52:46;16.10;56.60
19248;DHT22;9758;48.640;8.148;2022-11-02T07:55:15;16.10;56.60
19248;DHT22;9758;48.640;8.148;2022-11-02T07:57:43;16.20;56.60
19248;DHT22;9758;48.640;8.148;2022-11-02T08:00:17;16.20;56.40
19248;DHT22;9758;48.640;8.148;2022-11-02T08:02:44;16.20;56.40
19248;DHT22;9758;48.640;8.148;2022-11-02T08:05:11;16.20;56.30
19248;DHT22;9758;48.640;8.148;2022-11-02T08:07:38;16.20;56.30
19248;DHT22;9758;48.640;8.148;2022-11-02T08:10:06;16.20;56.30
19248;DHT22;9758;48.640;8.148;2022-11-02T08:12:34;16.10;56.30
19248;DHT22;9758;48.640;8.148;2022-11-02T08:15:00;16.20;56.40
19248;DHT22;9758;48.640;8.148;2022-11-02T08:17:27;16.10;56.40
19248;DHT22;9758;48.640;8.148;2022-11-02T08:19:54;16.20;56.40
19248;DHT22;9758;48.640;8.148;2022-11-02T08:22:21;16.20;56.40
19248;DHT22;9758;48.640;8.148;2022-11-02T08:24:47;16.20;56.40
19248;DHT22;9758;48.640;8.148;2022-11-02T08:27:14;16.20;56.30
19248;DHT22;9758;48.640;8.148;2022-11-02T08:29:42;16.20;56.40
19248;DHT22;9758;48.640;8.148;2022-11-02T08:32:09;16.20;56.40
19248;DHT22;9758;48.640;8.148;2022-11-02T08:34:36;16.20;56.40
19248;DHT22;9758;48.640;8.148;2022-11-02T08:37:03;16.20;56.30
19248;DHT22;9758;48.640;8.148;2022-11-02T08:39:32;16.20;56.40
19248;DHT22;9758;48.640;8.148;2022-11-02T08:41:58;16.30;56.50
19248;DHT22;9758;48.640;8.148;2022-11-02T08:44:25;16.30;56.50
19248;DHT22;9758;48.640;8.148;2022-11-02T08:46:53;16.30;56.40
19248;DHT22;9758;48.640;8.148;2022-11-02T08:49:21;16.40;56.40
19248;DHT22;9758;48.640;8.148;2022-11-02T08:51:47;16.40;56.40
19248;DHT22;9758;48.640;8.148;2022-11-02T08:54:14;16.50;56.30
19248;DHT22;9758;48.640;8.148;2022-11-02T08:56:41;16.50;56.30
19248;DHT22;9758;48.640;8.148;2022-11-02T08:59:08;16.60;56.30
19248;DHT22;9758;48.640;8.148;2022-11-02T09:01:35;16.60;56.20
19248;DHT22;9758;48.640;8.148;2022-11-02T09:04:04;16.60;56.20
19248;DHT22;9758;48.640;8.148;2022-11-02T09:06:31;16.70;56.20
19248;DHT22;9758;48.640;8.148;2022-11-02T09:08:58;16.80;56.20
19248;DHT22;9758;48.640;8.148;2022-11-02T09:11:25;16.80;56.10
19248;DHT22;9758;48.640;8.148;2022-11-02T09:13:51;16.80;56.00
19248;DHT22;9758;48.640;8.148;2022-11-02T09:16:18;16.90;56.00
19248;DHT22;9758;48.640;8.148;2022-11-02T09:18:45;16.90;56.00
19248;DHT22;9758;48.640;8.148;2022-11-02T09:21:13;16.90;56.00
19248;DHT22;9758;48.640;8.148;2022-11-02T09:23:40;17.00;56.00
19248;DHT22;9758;48.640;8.148;2022-11-02T09:26:07;17.00;55.90
19248;DHT22;9758;48.640;8.148;2022-11-02T09:28:33;17.00;55.90
19248;DHT22;9758;48.640;8.148;2022-11-02T09:31:00;17.00;55.80
19248;DHT22;9758;48.640;8.148;2022-11-02T09:33:27;17.00;55.90
19248;DHT22;9758;48.640;8.148;2022-11-02T09:35:54;17.00;55.90
19248;DHT22;9758;48.640;8.148;2022-11-02T09:38:22;17.00;55.80
19248;DHT22;9758;48.640;8.148;2022-11-02T09:40:54;16.90;56.40
19248;DHT22;9758;48.640;8.148;2022-11-02T09:43:33;16.90;55.70
19248;DHT22;9758;48.640;8.148;2022-11-02T09:46:06;16.90;55.80
19248;DHT22;9758;48.640;8.148;2022-11-02T09:48:47;16.90;55.80
19248;DHT22;9758;48.640;8.148;2022-11-02T09:51:16;16.90;56.40
19248;DHT22;9758;48.640;8.148;2022-11-02T09:53:51;16.90;55.80
19248;DHT22;9758;48.640;8.148;2022-11-02T09:56:20;16.90;55.80
19248;DHT22;9758;48.640;8.148;2022-11-02T09:58:52;16.90;55.80
19248;DHT22;9758;48.640;8.148;2022-11-02T10:01:40;16.90;55.80
19248;DHT22;9758;48.640;8.148;2022-11-02T10:04:29;16.90;55.80
19248;DHT22;9758;48.640;8.148;2022-11-02T10:07:06;16.90;55.90
19248;DHT22;9758;48.640;8.148;2022-11-02T10:09:42;16.90;55.90
19248;DHT22;9758;48.640;8.148;2022-11-02T10:12:14;17.00;56.00
19248;DHT22;9758;48.640;8.148;2022-11-02T10:14:54;17.10;56.00
19248;DHT22;9758;48.640;8.148;2022-11-02T10:17:25;17.10;55.90
19248;DHT22;9758;48.640;8.148;2022-11-02T10:19:54;17.20;55.80
19248;DHT22;9758;48.640;8.148;2022-11-02T10:22:26;17.20;55.60
19248;DHT22;9758;48.640;8.148;2022-11-02T10:24:55;17.20;55.50
19248;DHT22;9758;48.640;8.148;2022-11-02T10:27:25;17.10;55.50
19248;DHT22;9758;48.640;8.148;2022-11-02T10:29:56;17.10;55.40
19248;DHT22;9758;48.640;8.148;2022-11-02T10:32:25;17.10;55.60
19248;DHT22;9758;48.640;8.148;2022-11-02T10:34:52;17.00;55.60
19248;DHT22;9758;48.640;8.148;2022-11-02T10:37:36;17.00;55.60
19248;DHT22;9758;48.640;8.148;2022-11-02T10:40:17;17.00;55.60
19248;DHT22;9758;48.640;8.148;2022-11-02T10:42:58;17.00;55.70
19248;DHT22;9758;48.640;8.148;2022-11-02T10:45:52;17.00;55.80
19248;DHT22;9758;48.640;8.148;2022-11-02T10:48:32;17.10;55.90
19248;DHT22;9758;48.640;8.148;2022-11-02T10:51:06;17.20;55.80
19248;DHT22;9758;48.640;8.148;2022-11-02T10:53:35;17.20;55.70
19248;DHT22;9758;48.640;8.148;2022-11-02T10:56:11;17.30;55.60
19248;DHT22;9758;48.640;8.148;2022-11-02T10:58:43;17.40;55.20
19248;DHT22;9758;48.640;8.148;2022-11-02T11:01:11;17.50;55.40
19248;DHT22;9758;48.640;8.148;2022-11-02T11:03:55;17.50;56.10
19248;DHT22;9758;48.640;8.148;2022-11-02T11:06:24;17.70;55.60
19248;DHT22;9758;48.640;8.148;2022-11-02T11:08:58;17.80;55.20
19248;DHT22;9758;48.640;8.148;2022-11-02T11:11:27;17.90;55.20
19248;DHT22;9758;48.640;8.148;2022-11-02T11:13:58;18.00;54.70
19248;DHT22;9758;48.640;8.148;2022-11-02T11:16:38;17.90;54.20
19248;DHT22;9758;48.640;8.148;2022-11-02T11:19:19;17.90;54.60
19248;DHT22;9758;48.640;8.148;2022-11-02T11:21:47;17.80;54.70
19248;DHT22;9758;48.640;8.148;2022-11-02T11:24:20;17.70;54.80
19248;DHT22;9758;48.640;8.148;2022-11-02T11:27:01;17.70;54.90
19248;DHT22;9758;48.640;8.148;2022-11-02T11:29:33;17.70;55.00
19248;DHT22;9758;48.640;8.148;2022-11-02T11:32:02;17.80;54.80
19248;DHT22;9758;48.640;8.148;2022-11-02T11:34:31;17.90;55.00
19248;DHT22;9758;48.640;8.148;2022-11-02T11:37:07;17.90;54.90
19248;DHT22;9758;48.640;8.148;2022-11-02T11:39:35;18.10;55.00
19248;DHT22;9758;48.640;8.148;2022-11-02T11:42:13;18.10;54.60
19248;DHT22;9758;48.640;8.148;2022-11-02T11:44:44;18.10;54.40
19248;DHT22;9758;48.640;8.148;2022-11-02T11:47:12;18.10;54.50
19248;DHT22;9758;48.640;8.148;2022-11-02T11:49:45;18.20;54.60
19248;DHT22;9758;48.640;8.148;2022-11-02T11:52:17;18.30;54.60
19248;DHT22;9758;48.640;8.148;2022-11-02T11:54:52;18.30;54.40
19248;DHT22;9758;48.640;8.148;2022-11-02T11:57:24;18.40;54.10
19248;DHT22;9758;48.640;8.148;2022-11-02T11:59:53;18.30;54.20
19248;DHT22;9758;48.640;8.148;2022-11-02T12:02:25;18.40;54.10
19248;DHT22;9758;48.640;8.148;2022-11-02T12:04:59;18.40;54.20
19248;DHT22;9758;48.640;8.148;2022-11-02T12:07:54;18.40;54.40
19248;DHT22;9758;48.640;8.148;2022-11-02T12:10:37;18.40;54.30
19248;DHT22;9758;48.640;8.148;2022-11-02T12:13:19;18.50;54.40
19248;DHT22;9758;48.640;8.148;2022-11-02T12:16:02;18.70;54.10
19248;DHT22;9758;48.640;8.148;2022-11-02T12:18:43;18.70;54.10
19248;DHT22;9758;48.640;8.148;2022-11-02T12:21:27;18.80;54.00
19248;DHT22;9758;48.640;8.148;2022-11-02T12:24:12;18.80;54.00
19248;DHT22;9758;48.640;8.148;2022-11-02T12:26:51;18.90;54.10
19248;DHT22;9758;48.640;8.148;2022-11-02T12:29:38;18.90;53.90
19248;DHT22;9758;48.640;8.148;2022-11-02T12:32:15;19.00;53.80
19248;DHT22;9758;48.640;8.148;2022-11-02T12:35:10;19.00;53.80
19248;DHT22;9758;48.640;8.148;2022-11-02T12:37:53;19.00;53.60
19248;DHT22;9758;48.640;8.148;2022-11-02T12:40:32;19.00;53.70
19248;DHT22;9758;48.640;8.148;2022-11-02T12:43:14;19.00;53.70
19248;DHT22;9758;48.640;8.148;2022-11-02T12:45:51;19.00;53.50
19248;DHT22;9758;48.640;8.148;2022-11-02T12:48:29;18.90;53.40
19248;DHT22;9758;48.640;8.148;2022-11-02T12:51:02;18.80;53.50
19248;DHT22;9758;48.640;8.148;2022-11-02T12:53:38;18.80;53.70
19248;DHT22;9758;48.640;8.148;2022-11-02T12:56:13;18.80;53.70
19248;DHT22;9758;48.640;8.148;2022-11-02T12:58:42;18.80;53.80
19248;DHT22;9758;48.640;8.148;2022-11-02T13:01:17;18.80;53.80
19248;DHT22;9758;48.640;8.148;2022-11-02T13:03:49;18.90;53.90
19248;DHT22;9758;48.640;8.148;2022-11-02T13:06:22;19.00;53.90
19248;DHT22;9758;48.640;8.148;2022-11-02T13:08:53;19.00;53.90
19248;DHT22;9758;48.640;8.148;2022-11-02T13:11:24;19.10;53.70
19248;DHT22;9758;48.640;8.148;2022-11-02T13:13:56;19.20;53.70
19248;DHT22;9758;48.640;8.148;2022-11-02T13:16:34;19.20;53.20
19248;DHT22;9758;48.640;8.148;2022-11-02T13:19:06;19.20;53.30
19248;DHT22;9758;48.640;8.148;2022-11-02T13:21:42;19.20;53.30
19248;DHT22;9758;48.640;8.148;2022-11-02T13:24:14;19.10;53.20
19248;DHT22;9758;48.640;8.148;2022-11-02T13:26:42;19.00;53.20
19248;DHT22;9758;48.640;8.148;2022-11-02T13:29:14;19.00;53.40
19248;DHT22;9758;48.640;8.148;2022-11-02T13:31:46;18.90;53.40
19248;DHT22;9758;48.640;8.148;2022-11-02T13:34:18;19.00;53.40
19248;DHT22;9758;48.640;8.148;2022-11-02T13:36:48;19.00;53.40
19248;DHT22;9758;48.640;8.148;2022-11-02T13:39:17;19.10;54.10
19248;DHT22;9758;48.640;8.148;2022-11-02T13:42:09;19.10;53.50
19248;DHT22;9758;48.640;8.148;2022-11-02T13:48:01;19.30;53.50
19248;DHT22;9758;48.640;8.148;2022-11-02T13:50:38;19.30;53.40
19248;DHT22;9758;48.640;8.148;2022-11-02T13:53:13;19.40;53.40
19248;DHT22;9758;48.640;8.148;2022-11-02T13:55:44;19.50;53.90
19248;DHT22;9758;48.640;8.148;2022-11-02T13:58:21;19.50;52.90
19248;DHT22;9758;48.640;8.148;2022-11-02T14:00:49;19.50;52.80
19248;DHT22;9758;48.640;8.148;2022-11-02T14:03:21;19.50;53.10
19248;DHT22;9758;48.640;8.148;2022-11-02T14:05:54;19.40;52.90
19248;DHT22;9758;48.640;8.148;2022-11-02T14:08:28;19.50;53.20
19248;DHT22;9758;48.640;8.148;2022-11-02T14:11:03;19.50;53.20
19248;DHT22;9758;48.640;8.148;2022-11-02T14:16:43;19.50;52.80
19248;DHT22;9758;48.640;8.148;2022-11-02T14:19:22;19.40;52.60
19248;DHT22;9758;48.640;8.148;2022-11-02T14:22:08;19.40;52.70
19248;DHT22;9758;48.640;8.148;2022-11-02T14:25:06;19.40;52.60
19248;DHT22;9758;48.640;8.148;2022-11-02T14:27:33;19.40;52.60
19248;DHT22;9758;48.640;8.148;2022-11-02T14:30:00;19.40;52.50
19248;DHT22;9758;48.640;8.148;2022-11-02T14:32:38;19.30;52.50
19248;DHT22;9758;48.640;8.148;2022-11-02T14:35:29;19.20;52.60
19248;DHT22;9758;48.640;8.148;2022-11-02T14:38:19;19.10;52.60
19248;DHT22;9758;48.640;8.148;2022-11-02T14:40:53;19.00;52.70
19248;DHT22;9758;48.640;8.148;2022-11-02T14:43:53;18.90;52.80
19248;DHT22;9758;48.640;8.148;2022-11-02T14:46:35;18.80;52.90
19248;DHT22;9758;48.640;8.148;2022-11-02T14:49:05;18.70;53.00
19248;DHT22;9758;48.640;8.148;2022-11-02T14:51:43;18.60;53.00
19248;DHT22;9758;48.640;8.148;2022-11-02T14:54:15;18.60;53.10
19248;DHT22;9758;48.640;8.148;2022-11-02T14:57:00;18.50;53.20
19248;DHT22;9758;48.640;8.148;2022-11-02T14:59:29;18.40;53.20
19248;DHT22;9758;48.640;8.148;2022-11-02T15:01:59;18.40;53.20
19248;DHT22;9758;48.640;8.148;2022-11-02T15:04:27;18.30;53.20
19248;DHT22;9758;48.640;8.148;2022-11-02T15:06:57;18.20;53.20
19248;DHT22;9758;48.640;8.148;2022-11-02T15:09:50;18.10;53.30
19248;DHT22;9758;48.640;8.148;2022-11-02T15:12:38;18.00;53.30
19248;DHT22;9758;48.640;8.148;2022-11-02T15:15:31;17.90;53.30
19248;DHT22;9758;48.640;8.148;2022-11-02T15:18:31;17.80;53.40
19248;DHT22;9758;48.640;8.148;2022-11-02T15:21:25;17.70;53.40
19248;DHT22;9758;48.640;8.148;2022-11-02T15:26:48;17.50;53.60
19248;DHT22;9758;48.640;8.148;2022-11-02T15:29:19;17.50;53.60
19248;DHT22;9758;48.640;8.148;2022-11-02T15:31:52;17.40;53.60
19248;DHT22;9758;48.640;8.148;2022-11-02T15:34:26;17.30;53.60
19248;DHT22;9758;48.640;8.148;2022-11-02T15:36:55;17.30;53.70
19248;DHT22;9758;48.640;8.148;2022-11-02T15:39:25;17.20;53.70
19248;DHT22;9758;48.640;8.148;2022-11-02T15:42:00;17.20;53.70
19248;DHT22;9758;48.640;8.148;2022-11-02T15:47:34;17.00;53.80
19248;DHT22;9758;48.640;8.148;2022-11-02T15:50:15;16.90;53.80
19248;DHT22;9758;48.640;8.148;2022-11-02T15:52:55;16.80;53.80
19248;DHT22;9758;48.640;8.148;2022-11-02T15:55:32;16.80;53.90
19248;DHT22;9758;48.640;8.148;2022-11-02T15:58:06;16.70;53.90
19248;DHT22;9758;48.640;8.148;2022-11-02T16:00:35;16.60;54.00
19248;DHT22;9758;48.640;8.148;2022-11-02T16:03:04;16.50;54.00
19248;DHT22;9758;48.640;8.148;2022-11-02T16:05:34;16.40;54.10
19248;DHT22;9758;48.640;8.148;2022-11-02T16:08:20;16.30;54.10
19248;DHT22;9758;48.640;8.148;2022-11-02T16:10:49;16.20;54.20
19248;DHT22;9758;48.640;8.148;2022-11-02T16:13:19;16.20;54.20
19248;DHT22;9758;48.640;8.148;2022-11-02T16:15:47;16.10;54.20
19248;DHT22;9758;48.640;8.148;2022-11-02T16:18:24;16.10;54.30
19248;DHT22;9758;48.640;8.148;2022-11-02T16:20:53;16.00;54.40
19248;DHT22;9758;48.640;8.148;2022-11-02T16:23:24;15.90;54.40
19248;DHT22;9758;48.640;8.148;2022-11-02T16:25:54;15.90;54.50
19248;DHT22;9758;48.640;8.148;2022-11-02T16:28:23;15.80;54.50